Time;durP1;ratioP1;P1;durP2;ratioP2;P2;SDS_P1;SDS_P2;PMS_P1;PMS_P2;Temp;Humidity;BMP_temperature;BMP_pressure;BME280_temperature;BME280_humidity;BME280_pressure;Samples;Min_cycle;Max_cycle;Signal;HPM_P1;HPM_P2
2023/08/11 00:00:34;;;;;;;5.25;2.08;;;;;;;;;;5031032;28;20057;-79
2023/08/11 00:03:02;;;;;;;1.75;1.65;;;;;;;;;;5028284;28;20541;-79
2023/08/11 00:05:30;;;;;;;1.90;1.80;;;;;;;;;;5030270;28;20045;-79
2023/08/11 00:07:57;;;;;;;3.78;2.00;;;;;;;;;;5032683;28;20046;-78
2023/08/11 00:10:25;;;;;;;2.10;1.90;;;;;;;;;;5032046;28;20073;-79
2023/08/11 00:12:53;;;;;;;4.40;1.92;;;;;;;;;;5033124;28;20053;-79
2023/08/11 00:15:21;;;;;;;2.45;1.40;;;;;;;;;;5035007;28;20053;-79
2023/08/11 00:17:49;;;;;;;4.55;2.95;;;;;;;;;;5032276;28;20045;-79
2023/08/11 00:20:16;;;;;;;2.13;1.90;;;;;;;;;;5031987;28;20057;-79
2023/08/11 00:22:43;;;;;;;1.90;1.80;;;;;;;;;;5030818;28;20077;-79
2023/08/11 00:25:11;;;;;;;2.90;1.65;;;;;;;;;;5029375;28;20130;-78
2023/08/11 00:27:38;;;;;;;2.97;1.95;;;;;;;;;;5031250;28;20700;-78
2023/08/11 00:30:06;;;;;;;2.08;1.98;;;;;;;;;;5018477;28;20045;-79
2023/08/11 00:32:34;;;;;;;6.25;1.60;;;;;;;;;;5039298;28;20045;-78
2023/08/11 00:35:02;;;;;;;1.50;1.40;;;;;;;;;;5030279;28;20491;-79
2023/08/11 00:37:29;;;;;;;1.70;1.60;;;;;;;;;;5016319;28;20045;-79
2023/08/11 00:39:58;;;;;;;1.80;1.70;;;;;;;;;;5030600;28;20084;-79
2023/08/11 00:42:25;;;;;;;2.05;1.70;;;;;;;;;;5031772;28;20053;-78
2023/08/11 00:44:53;;;;;;;2.05;1.95;;;;;;;;;;5038425;28;20418;-79
2023/08/11 00:47:20;;;;;;;3.30;2.10;;;;;;;;;;5026990;28;20053;-79
2023/08/11 00:49:49;;;;;;;2.10;1.90;;;;;;;;;;5030778;28;20099;-79
2023/08/11 00:52:17;;;;;;;1.70;1.60;;;;;;;;;;5038298;28;20046;-79
2023/08/11 00:54:45;;;;;;;3.22;1.67;;;;;;;;;;5023257;28;20069;-78
2023/08/11 00:57:18;;;;;;;3.72;1.70;;;;;;;;;;5023332;28;20115;-79
2023/08/11 00:59:46;;;;;;;1.90;1.80;;;;;;;;;;5053215;23;20045;-75
2023/08/11 01:02:13;;;;;;;7.53;1.98;;;;;;;;;;5043736;28;20053;-76
2023/08/11 01:04:42;;;;;;;2.05;1.92;;;;;;;;;;5036123;28;20040;-73
2023/08/11 01:07:27;;;;;;;8.63;1.60;;;;;;;;;;5027497;28;20509;-75
2023/08/11 01:10:12;;;;;;;2.67;1.88;;;;;;;;;;5014394;28;20045;-75
2023/08/11 01:13:01;;;;;;;4.85;1.83;;;;;;;;;;5043927;28;20040;-75
2023/08/11 01:15:35;;;;;;;1.58;1.52;;;;;;;;;;5021752;28;20422;-76
2023/08/11 01:18:04;;;;;;;2.28;1.98;;;;;;;;;;5018920;28;20053;-76
2023/08/11 01:20:33;;;;;;;4.80;1.60;;;;;;;;;;5013596;28;20072;-75
2023/08/11 01:23:02;;;;;;;4.13;1.73;;;;;;;;;;5044355;28;20056;-75
2023/08/11 01:25:30;;;;;;;8.90;1.90;;;;;;;;;;5025872;28;20102;-76
2023/08/11 01:27:58;;;;;;;3.58;1.90;;;;;;;;;;5043903;28;20141;-74
2023/08/11 01:30:26;;;;;;;2.00;1.90;;;;;;;;;;5043723;28;20217;-76
2023/08/11 01:32:54;;;;;;;2.38;2.05;;;;;;;;;;5026857;28;20103;-76
2023/08/11 01:35:22;;;;;;;1.90;1.80;;;;;;;;;;5045059;28;20506;-76
2023/08/11 01:38:08;;;;;;;1.80;1.70;;;;;;;;;;5020497;28;20042;-74
2023/08/11 01:40:36;;;;;;;3.92;1.92;;;;;;;;;;5041790;28;20045;-75
2023/08/11 01:43:06;;;;;;;2.88;2.00;;;;;;;;;;5044171;28;20084;-76
2023/08/11 01:45:34;;;;;;;3.80;1.90;;;;;;;;;;5043703;28;20129;-75
2023/08/11 01:48:03;;;;;;;2.50;1.67;;;;;;;;;;5044102;28;20884;-76
2023/08/11 01:50:32;;;;;;;6.95;1.90;;;;;;;;;;5025502;28;20522;-76
2023/08/11 01:52:59;;;;;;;3.80;1.73;;;;;;;;;;5025808;28;20483;-76
2023/08/11 01:55:28;;;;;;;2.17;2.08;;;;;;;;;;5043581;28;20045;-74
2023/08/11 01:57:56;;;;;;;3.75;1.70;;;;;;;;;;5043860;28;20049;-74
2023/08/11 02:00:27;;;;;;;3.42;2.13;;;;;;;;;;5025000;28;20673;-76
2023/08/11 02:02:56;;;;;;;3.80;2.10;;;;;;;;;;5043189;28;20478;-76
2023/08/11 02:05:27;;;;;;;2.30;2.10;;;;;;;;;;5046407;28;20053;-76
2023/08/11 02:07:55;;;;;;;3.92;2.00;;;;;;;;;;5040399;28;20061;-74
2023/08/11 02:10:23;;;;;;;2.95;2.10;;;;;;;;;;5047422;28;20045;-74
2023/08/11 02:12:51;;;;;;;2.78;2.20;;;;;;;;;;5036415;28;20038;-74
2023/08/11 02:15:18;;;;;;;2.75;2.17;;;;;;;;;;5029405;28;20056;-75
2023/08/11 02:17:46;;;;;;;2.38;2.10;;;;;;;;;;5047427;28;20637;-76
2023/08/11 02:20:22;;;;;;;2.47;2.03;;;;;;;;;;5047099;28;20438;-74
2023/08/11 02:22:51;;;;;;;3.28;1.73;;;;;;;;;;5039899;28;20075;-76
2023/08/11 02:25:19;;;;;;;2.17;1.90;;;;;;;;;;5022810;28;20451;-76
2023/08/11 02:27:48;;;;;;;5.10;2.47;;;;;;;;;;5047179;28;20159;-76
2023/08/11 02:30:17;;;;;;;2.25;2.10;;;;;;;;;;5048105;28;20049;-76
2023/08/11 02:32:45;;;;;;;2.42;2.30;;;;;;;;;;5014321;28;20045;-76
2023/08/11 02:35:17;;;;;;;3.80;2.20;;;;;;;;;;5030852;28;20045;-76
2023/08/11 02:37:46;;;;;;;2.03;1.90;;;;;;;;;;5021834;28;20061;-76
2023/08/11 02:40:15;;;;;;;2.33;2.10;;;;;;;;;;5048379;28;20048;-74
2023/08/11 02:42:48;;;;;;;2.25;2.05;;;;;;;;;;5029480;28;20079;-76
2023/08/11 02:45:16;;;;;;;2.33;2.20;;;;;;;;;;5022639;28;20448;-76
2023/08/11 02:47:43;;;;;;;2.40;2.20;;;;;;;;;;5027786;28;20049;-74
2023/08/11 02:50:11;;;;;;;2.20;2.00;;;;;;;;;;5046929;28;20045;-76
2023/08/11 02:52:38;;;;;;;2.25;2.15;;;;;;;;;;5045887;28;20057;-76
2023/08/11 02:55:07;;;;;;;3.72;2.42;;;;;;;;;;5029257;28;20090;-76
2023/08/11 02:57:35;;;;;;;4.25;2.10;;;;;;;;;;5046986;28;20056;-76
2023/08/11 03:00:08;;;;;;;2.15;2.05;;;;;;;;;;5046545;28;20045;-76
2023/08/11 03:02:35;;;;;;;2.50;2.40;;;;;;;;;;5046491;28;20323;-75
2023/08/11 03:05:03;;;;;;;3.55;2.05;;;;;;;;;;5047438;28;20436;-76
2023/08/11 03:07:31;;;;;;;3.88;2.70;;;;;;;;;;5028896;28;20425;-76
2023/08/11 03:09:59;;;;;;;3.03;2.10;;;;;;;;;;5028741;28;20343;-76
2023/08/11 03:12:28;;;;;;;4.72;2.50;;;;;;;;;;5028942;28;20525;-74
2023/08/11 03:14:56;;;;;;;2.10;2.00;;;;;;;;;;5046775;28;20494;-76
2023/08/11 03:17:24;;;;;;;5.00;2.13;;;;;;;;;;5028228;28;20425;-76
2023/08/11 03:19:53;;;;;;;2.42;1.95;;;;;;;;;;5028210;28;20065;-75
2023/08/11 03:22:20;;;;;;;1.77;1.67;;;;;;;;;;5028930;28;20056;-76
2023/08/11 03:24:49;;;;;;;3.55;2.22;;;;;;;;;;5028734;28;20052;-76
2023/08/11 03:27:18;;;;;;;3.05;1.80;;;;;;;;;;5029338;28;20144;-76
2023/08/11 03:29:45;;;;;;;2.95;2.45;;;;;;;;;;5045924;28;20146;-75
2023/08/11 03:32:14;;;;;;;2.38;2.22;;;;;;;;;;5029223;28;20128;-75
2023/08/11 03:34:41;;;;;;;7.45;2.35;;;;;;;;;;5029013;28;20461;-76
2023/08/11 03:37:10;;;;;;;2.47;2.25;;;;;;;;;;5029103;28;20285;-76
2023/08/11 03:39:37;;;;;;;2.10;2.00;;;;;;;;;;5028102;28;20075;-75
2023/08/11 03:42:05;;;;;;;1.90;1.80;;;;;;;;;;5024008;28;20095;-75
2023/08/11 03:44:33;;;;;;;1.90;1.80;;;;;;;;;;5025135;28;20490;-76
2023/08/11 03:47:02;;;;;;;2.42;2.22;;;;;;;;;;5024879;28;20430;-75
2023/08/11 03:49:31;;;;;;;2.47;2.35;;;;;;;;;;5042093;28;20110;-76
2023/08/11 03:51:58;;;;;;;4.15;2.45;;;;;;;;;;5020133;28;20044;-75
2023/08/11 03:54:30;;;;;;;2.72;1.88;;;;;;;;;;5019927;28;20120;-76
2023/08/11 03:57:14;;;;;;;2.28;2.08;;;;;;;;;;5022052;28;20037;-75
2023/08/11 03:59:43;;;;;;;1.90;1.80;;;;;;;;;;5026938;28;20049;-76
2023/08/11 04:02:11;;;;;;;2.83;2.30;;;;;;;;;;5027339;28;20528;-77
2023/08/11 04:04:39;;;;;;;3.88;2.20;;;;;;;;;;5045865;28;20069;-76
2023/08/11 04:07:07;;;;;;;2.20;2.10;;;;;;;;;;5028267;28;20049;-74
2023/08/11 04:09:35;;;;;;;2.40;2.20;;;;;;;;;;5028320;28;20045;-74
2023/08/11 04:12:02;;;;;;;2.35;2.25;;;;;;;;;;5045756;28;20445;-75
2023/08/11 04:14:30;;;;;;;2.42;2.28;;;;;;;;;;5045891;28;20041;-76
2023/08/11 04:16:58;;;;;;;2.05;1.95;;;;;;;;;;5027514;28;20037;-76
2023/08/11 04:19:26;;;;;;;2.50;2.30;;;;;;;;;;5044673;28;20099;-76
2023/08/11 04:21:54;;;;;;;2.92;2.67;;;;;;;;;;5027138;28;20041;-76
2023/08/11 04:24:22;;;;;;;2.40;2.20;;;;;;;;;;5045481;28;20506;-75
2023/08/11 04:26:51;;;;;;;2.30;2.10;;;;;;;;;;5027634;28;20136;-75
2023/08/11 04:29:19;;;;;;;2.20;2.00;;;;;;;;;;5026902;28;20139;-74
2023/08/11 04:31:47;;;;;;;2.80;2.35;;;;;;;;;;5026694;28;20037;-75
2023/08/11 04:34:17;;;;;;;2.70;2.33;;;;;;;;;;5027449;28;20044;-76
2023/08/11 04:36:46;;;;;;;2.40;2.22;;;;;;;;;;5026759;28;20127;-76
2023/08/11 04:39:13;;;;;;;2.42;2.22;;;;;;;;;;5044833;28;20123;-76
2023/08/11 04:41:42;;;;;;;2.60;2.40;;;;;;;;;;5026704;28;20059;-76
2023/08/11 04:44:09;;;;;;;2.45;2.25;;;;;;;;;;5020134;28;20041;-74
2023/08/11 04:46:37;;;;;;;3.58;2.25;;;;;;;;;;5027665;28;20045;-73
2023/08/11 04:49:04;;;;;;;2.22;2.10;;;;;;;;;;5019422;28;20287;-76
2023/08/11 04:51:32;;;;;;;2.10;2.00;;;;;;;;;;5044410;28;20048;-76
2023/08/11 04:54:03;;;;;;;3.05;1.98;;;;;;;;;;5026910;28;20069;-76
2023/08/11 04:56:31;;;;;;;2.20;2.10;;;;;;;;;;5026812;28;20133;-74
2023/08/11 04:58:58;;;;;;;2.53;2.33;;;;;;;;;;5044177;28;20496;-74
2023/08/11 05:01:26;;;;;;;4.55;2.45;;;;;;;;;;5043553;28;20053;-76
2023/08/11 05:03:53;;;;;;;2.30;2.20;;;;;;;;;;5045011;28;20083;-75
2023/08/11 05:06:21;;;;;;;2.65;2.45;;;;;;;;;;5026693;28;20056;-76
2023/08/11 05:08:48;;;;;;;2.20;2.10;;;;;;;;;;5044398;28;20059;-76
2023/08/11 05:11:16;;;;;;;2.80;2.60;;;;;;;;;;5043537;28;20041;-74
2023/08/11 05:13:43;;;;;;;2.97;2.78;;;;;;;;;;5044105;28;20420;-76
2023/08/11 05:16:11;;;;;;;2.78;2.58;;;;;;;;;;5044856;28;20075;-75
2023/08/11 05:18:38;;;;;;;3.20;2.78;;;;;;;;;;5044545;28;20491;-76
2023/08/11 05:21:10;;;;;;;4.32;2.47;;;;;;;;;;5038122;28;20061;-75
2023/08/11 05:23:38;;;;;;;5.50;2.60;;;;;;;;;;5045449;28;20040;-75
2023/08/11 05:26:05;;;;;;;5.88;3.17;;;;;;;;;;5037535;28;20543;-75
2023/08/11 05:28:32;;;;;;;4.00;2.72;;;;;;;;;;5045157;28;20053;-75
2023/08/11 05:31:01;;;;;;;3.63;3.08;;;;;;;;;;5043988;28;20044;-76
2023/08/11 05:33:28;;;;;;;3.92;3.63;;;;;;;;;;5044720;28;20055;-75
2023/08/11 05:35:56;;;;;;;3.17;2.88;;;;;;;;;;5044291;28;20402;-75
2023/08/11 05:38:23;;;;;;;3.05;2.85;;;;;;;;;;5044620;28;20048;-75
2023/08/11 05:40:51;;;;;;;3.10;2.90;;;;;;;;;;5048067;28;20402;-76
2023/08/11 05:43:18;;;;;;;3.13;2.88;;;;;;;;;;5049662;28;20087;-76
2023/08/11 05:45:46;;;;;;;2.95;2.78;;;;;;;;;;5048697;28;20317;-76
2023/08/11 05:48:13;;;;;;;3.92;3.08;;;;;;;;;;5048911;28;20118;-74
2023/08/11 05:50:45;;;;;;;3.65;2.60;;;;;;;;;;5048282;28;20533;-76
2023/08/11 05:53:12;;;;;;;3.07;2.87;;;;;;;;;;5041889;28;20048;-76
2023/08/11 05:55:40;;;;;;;4.03;2.92;;;;;;;;;;5049563;28;20284;-76
2023/08/11 05:58:07;;;;;;;3.20;3.00;;;;;;;;;;5042028;28;20064;-76
2023/08/11 06:00:36;;;;;;;2.95;2.75;;;;;;;;;;5046340;28;20040;-76
2023/08/11 06:03:05;;;;;;;3.58;3.00;;;;;;;;;;5045449;28;20135;-76
2023/08/11 06:05:33;;;;;;;3.10;2.90;;;;;;;;;;5044317;28;20494;-77
2023/08/11 06:08:00;;;;;;;3.13;2.92;;;;;;;;;;5044368;28;20076;-75
2023/08/11 06:10:33;;;;;;;4.15;2.88;;;;;;;;;;5045771;28;20041;-77
2023/08/11 06:13:01;;;;;;;2.85;2.65;;;;;;;;;;5046251;28;20060;-75
2023/08/11 06:15:30;;;;;;;3.80;2.75;;;;;;;;;;5046666;28;20130;-75
2023/08/11 06:17:57;;;;;;;2.97;2.70;;;;;;;;;;5028582;28;20552;-77
2023/08/11 06:20:25;;;;;;;3.13;2.92;;;;;;;;;;5048797;28;20598;-76
2023/08/11 06:23:08;;;;;;;3.53;2.75;;;;;;;;;;5049403;28;20061;-76
2023/08/11 06:25:36;;;;;;;3.85;2.67;;;;;;;;;;5048184;28;20060;-76
2023/08/11 06:28:03;;;;;;;2.80;2.60;;;;;;;;;;5047312;28;20059;-75
2023/08/11 06:30:32;;;;;;;2.70;2.50;;;;;;;;;;5046801;28;20574;-76
2023/08/11 06:33:09;;;;;;;3.55;2.50;;;;;;;;;;5050935;28;20072;-77
2023/08/11 06:36:51;;;;;;;2.55;2.35;;;;;;;;;;4978702;28;20130;-77
2023/08/11 06:39:21;;;;;;;5.55;2.40;;;;;;;;;;4968455;28;20070;-77
2023/08/11 06:41:51;;;;;;;2.20;2.10;;;;;;;;;;4953894;28;20050;-76
2023/08/11 06:44:41;;;;;;;2.70;2.47;;;;;;;;;;4969354;28;20039;-76
2023/08/11 06:47:10;;;;;;;2.22;2.13;;;;;;;;;;4964490;28;20039;-77
2023/08/11 06:49:41;;;;;;;2.63;2.35;;;;;;;;;;4967181;28;20050;-77
2023/08/11 06:52:13;;;;;;;2.67;2.47;;;;;;;;;;4965703;28;20149;-76
2023/08/11 06:54:44;;;;;;;4.55;2.45;;;;;;;;;;4968362;28;20461;-77
2023/08/11 06:57:14;;;;;;;2.80;2.50;;;;;;;;;;4966240;28;20047;-76
2023/08/11 06:59:41;;;;;;;2.10;2.00;;;;;;;;;;4959225;28;20051;-76
2023/08/11 07:02:08;;;;;;;2.67;2.33;;;;;;;;;;4962115;28;20326;-77
2023/08/11 07:04:36;;;;;;;3.08;2.40;;;;;;;;;;4982119;23;20072;-75
2023/08/11 07:07:03;;;;;;;2.33;2.17;;;;;;;;;;5024737;28;20494;-76
2023/08/11 07:09:31;;;;;;;2.60;2.40;;;;;;;;;;5028092;28;20049;-78
2023/08/11 07:11:59;;;;;;;2.90;2.25;;;;;;;;;;5027381;28;20049;-77
2023/08/11 07:14:26;;;;;;;2.65;2.50;;;;;;;;;;5028439;28;20041;-78
2023/08/11 07:16:54;;;;;;;2.67;2.47;;;;;;;;;;5027682;28;20155;-79
2023/08/11 07:19:21;;;;;;;2.53;2.42;;;;;;;;;;5010129;28;20399;-77
2023/08/11 07:21:49;;;;;;;2.58;2.38;;;;;;;;;;5026979;28;20412;-78
2023/08/11 07:24:17;;;;;;;2.20;2.10;;;;;;;;;;5025725;28;20144;-82
2023/08/11 07:26:44;;;;;;;2.50;2.30;;;;;;;;;;5028190;28;20077;-82
2023/08/11 07:29:12;;;;;;;5.15;2.45;;;;;;;;;;5027348;28;20068;-80
2023/08/11 07:31:39;;;;;;;2.30;2.13;;;;;;;;;;5023094;28;20071;-77
2023/08/11 07:34:07;;;;;;;2.10;2.00;;;;;;;;;;5025643;28;20053;-79
2023/08/11 07:36:34;;;;;;;2.40;2.30;;;;;;;;;;5016455;28;20048;-79
2023/08/11 07:39:02;;;;;;;2.50;2.30;;;;;;;;;;5026402;28;20046;-77
2023/08/11 07:41:49;;;;;;;2.22;2.10;;;;;;;;;;5025745;28;20075;-78
2023/08/11 07:44:16;;;;;;;2.00;1.90;;;;;;;;;;5009287;28;20068;-76
2023/08/11 07:46:43;;;;;;;2.00;1.80;;;;;;;;;;5026597;28;20107;-79
2023/08/11 07:49:12;;;;;;;1.88;1.77;;;;;;;;;;5026077;28;20049;-79
2023/08/11 07:51:40;;;;;;;3.03;1.75;;;;;;;;;;5008252;28;20475;-76
2023/08/11 07:54:09;;;;;;;1.90;1.70;;;;;;;;;;5027221;28;20132;-77
2023/08/11 07:56:36;;;;;;;1.88;1.77;;;;;;;;;;5026502;28;20117;-77
2023/08/11 07:59:04;;;;;;;3.33;1.80;;;;;;;;;;5017010;28;20046;-77
2023/08/11 08:01:33;;;;;;;1.85;1.75;;;;;;;;;;5021220;28;20618;-78
2023/08/11 08:04:00;;;;;;;2.05;1.85;;;;;;;;;;5025644;28;20219;-76
2023/08/11 08:06:28;;;;;;;2.22;1.80;;;;;;;;;;5026760;28;20523;-77
2023/08/11 08:08:55;;;;;;;2.30;2.20;;;;;;;;;;5026737;28;20124;-76
2023/08/11 08:11:23;;;;;;;2.30;2.08;;;;;;;;;;5017618;28;20103;-76
2023/08/11 08:13:51;;;;;;;1.80;1.70;;;;;;;;;;5026867;28;20415;-77
2023/08/11 08:16:18;;;;;;;2.03;1.92;;;;;;;;;;5026143;28;20045;-79
2023/08/11 08:18:46;;;;;;;1.80;1.70;;;;;;;;;;5025486;28;20152;-79
2023/08/11 08:21:13;;;;;;;2.08;1.88;;;;;;;;;;5025354;28;20404;-76
2023/08/11 08:23:41;;;;;;;1.92;1.83;;;;;;;;;;5012944;28;20056;-78
2023/08/11 08:26:09;;;;;;;2.45;1.67;;;;;;;;;;5015714;28;20049;-79
2023/08/11 08:28:37;;;;;;;2.10;1.90;;;;;;;;;;5023362;28;20572;-77
2023/08/11 08:31:06;;;;;;;1.55;1.40;;;;;;;;;;5024872;28;20055;-77
2023/08/11 08:33:33;;;;;;;1.73;1.70;;;;;;;;;;5026273;28;20159;-78
2023/08/11 08:36:01;;;;;;;2.92;1.60;;;;;;;;;;5025806;28;20045;-80
2023/08/11 08:38:28;;;;;;;4.03;1.80;;;;;;;;;;5026243;28;20128;-76
2023/08/11 08:40:57;;;;;;;1.90;1.80;;;;;;;;;;5008014;28;20056;-77
2023/08/11 08:43:25;;;;;;;1.92;1.83;;;;;;;;;;5023821;28;20041;-76
2023/08/11 08:45:53;;;;;;;1.67;1.67;;;;;;;;;;5025769;28;20140;-79
2023/08/11 08:48:25;;;;;;;1.70;1.60;;;;;;;;;;5023845;28;20499;-78
2023/08/11 08:50:53;;;;;;;1.88;1.50;;;;;;;;;;5010186;28;20175;-78
2023/08/11 08:53:21;;;;;;;1.75;1.60;;;;;;;;;;5008691;28;20121;-78
2023/08/11 08:55:49;;;;;;;1.65;1.60;;;;;;;;;;5026077;28;20121;-77
2023/08/11 08:58:16;;;;;;;1.45;1.40;;;;;;;;;;5025758;28;20041;-80
2023/08/11 09:00:44;;;;;;;2.00;1.83;;;;;;;;;;5025573;28;20553;-79
2023/08/11 09:03:12;;;;;;;1.67;1.58;;;;;;;;;;5025471;28;20132;-77
2023/08/11 09:05:40;;;;;;;2.45;1.75;;;;;;;;;;5025372;28;20041;-77
2023/08/11 09:08:08;;;;;;;1.80;1.65;;;;;;;;;;5025778;28;20070;-79
2023/08/11 09:10:36;;;;;;;1.88;1.77;;;;;;;;;;5017484;28;20052;-77
2023/08/11 09:13:04;;;;;;;1.70;1.60;;;;;;;;;;5023629;28;20056;-77
2023/08/11 09:15:33;;;;;;;1.83;1.73;;;;;;;;;;5024629;28;20123;-78
2023/08/11 09:18:00;;;;;;;2.03;1.70;;;;;;;;;;5024946;28;20045;-77
2023/08/11 09:20:29;;;;;;;1.55;1.45;;;;;;;;;;5021819;28;20411;-77
2023/08/11 09:22:58;;;;;;;1.77;1.42;;;;;;;;;;5026525;28;20060;-77
2023/08/11 09:25:25;;;;;;;1.77;1.40;;;;;;;;;;5007881;28;20072;-77
2023/08/11 09:27:52;;;;;;;1.67;1.60;;;;;;;;;;5008174;28;20140;-78
2023/08/11 09:30:20;;;;;;;2.13;1.65;;;;;;;;;;5016162;28;20053;-78
2023/08/11 09:32:48;;;;;;;3.67;1.83;;;;;;;;;;5025682;28;20447;-78
2023/08/11 09:35:22;;;;;;;2.00;1.80;;;;;;;;;;5025232;28;20051;-81
2023/08/11 09:37:53;;;;;;;1.50;1.40;;;;;;;;;;5027294;28;20045;-81
2023/08/11 09:40:21;;;;;;;1.58;1.52;;;;;;;;;;5026888;28;20133;-80
2023/08/11 09:42:49;;;;;;;1.65;1.55;;;;;;;;;;5025437;28;20049;-81
2023/08/11 09:45:18;;;;;;;1.60;1.50;;;;;;;;;;5024746;28;20047;-77
2023/08/11 09:47:46;;;;;;;1.60;1.52;;;;;;;;;;5004601;28;20077;-77
2023/08/11 09:50:13;;;;;;;1.80;1.70;;;;;;;;;;5024467;28;20053;-82
2023/08/11 09:52:42;;;;;;;2.00;1.60;;;;;;;;;;5023732;28;20149;-80
2023/08/11 09:55:10;;;;;;;1.60;1.50;;;;;;;;;;5021917;28;20038;-78
2023/08/11 09:57:39;;;;;;;1.33;1.23;;;;;;;;;;5021457;28;20431;-82
2023/08/11 10:00:14;;;;;;;1.77;1.50;;;;;;;;;;5014835;28;20062;-76
2023/08/11 10:02:46;;;;;;;2.38;1.50;;;;;;;;;;5019077;28;20511;-78
2023/08/11 10:05:16;;;;;;;2.45;1.50;;;;;;;;;;5022085;28;20056;-80
2023/08/11 10:07:47;;;;;;;1.60;1.50;;;;;;;;;;5025150;28;20057;-78
2023/08/11 10:10:20;;;;;;;1.92;1.50;;;;;;;;;;5021456;28;20045;-77
2023/08/11 10:13:12;;;;;;;1.30;1.30;;;;;;;;;;5024020;28;20396;-79
2023/08/11 10:15:40;;;;;;;1.33;1.33;;;;;;;;;;5023676;28;20136;-78
2023/08/11 10:18:08;;;;;;;1.35;1.30;;;;;;;;;;5023828;28;20060;-81
2023/08/11 10:20:39;;;;;;;1.02;1.00;;;;;;;;;;5023184;28;20538;-81
2023/08/11 10:23:07;;;;;;;1.47;1.10;;;;;;;;;;5024951;28;20088;-78
2023/08/11 10:25:35;;;;;;;1.30;1.20;;;;;;;;;;5025167;28;20073;-79
2023/08/11 10:28:06;;;;;;;2.15;1.20;;;;;;;;;;5025596;28;20045;-81
2023/08/11 10:30:34;;;;;;;1.15;1.15;;;;;;;;;;5011452;28;20259;-77
2023/08/11 10:33:09;;;;;;;1.27;1.27;;;;;;;;;;5027806;28;20067;-76
2023/08/11 10:35:46;;;;;;;1.20;1.20;;;;;;;;;;5010443;28;20124;-77
2023/08/11 10:38:22;;;;;;;1.30;1.20;;;;;;;;;;5028502;28;20053;-78
2023/08/11 10:40:57;;;;;;;1.10;1.10;;;;;;;;;;5022669;28;20038;-78
2023/08/11 10:43:28;;;;;;;1.15;1.08;;;;;;;;;;5027230;28;20052;-78
2023/08/11 10:45:55;;;;;;;;;;;;;;;;;;5012857;28;20128;-77
2023/08/11 10:48:23;;;;;;;1.17;1.17;;;;;;;;;;5028136;28;19929;-82
2023/08/11 10:50:50;;;;;;;1.20;1.20;;;;;;;;;;5014995;28;20053;-78
2023/08/11 10:53:22;;;;;;;1.67;1.10;;;;;;;;;;5029227;28;20049;-78
2023/08/11 10:56:00;;;;;;;1.25;1.17;;;;;;;;;;5027356;28;20053;-80
2023/08/11 10:58:35;;;;;;;1.98;1.40;;;;;;;;;;5030287;28;20057;-80
2023/08/11 11:01:03;;;;;;;1.45;1.02;;;;;;;;;;4994877;28;20073;-80
2023/08/11 11:03:31;;;;;;;1.30;1.20;;;;;;;;;;5026877;28;20499;-80
2023/08/11 11:06:04;;;;;;;1.20;1.10;;;;;;;;;;5033709;28;20403;-80
2023/08/11 11:08:32;;;;;;;1.27;1.20;;;;;;;;;;5028811;28;20105;-78
2023/08/11 11:10:59;;;;;;;1.25;1.15;;;;;;;;;;5034091;28;20076;-79
2023/08/11 11:13:26;;;;;;;1.20;1.20;;;;;;;;;;5033743;28;20053;-78
2023/08/11 11:15:54;;;;;;;3.35;1.30;;;;;;;;;;5032976;28;20076;-79
2023/08/11 11:18:21;;;;;;;1.30;1.25;;;;;;;;;;5033949;28;20045;-79
2023/08/11 11:20:49;;;;;;;1.42;1.20;;;;;;;;;;5028599;28;20049;-78
2023/08/11 11:23:16;;;;;;;1.58;1.20;;;;;;;;;;5033620;28;20049;-80
2023/08/11 11:25:44;;;;;;;1.42;1.20;;;;;;;;;;5031903;28;20462;-80
2023/08/11 11:28:12;;;;;;;1.73;1.20;;;;;;;;;;5030158;28;20073;-79
2023/08/11 11:30:40;;;;;;;2.88;1.20;;;;;;;;;;5023399;28;20076;-79
2023/08/11 11:33:07;;;;;;;1.10;1.10;;;;;;;;;;5033164;28;20068;-78
2023/08/11 11:35:35;;;;;;;1.17;1.10;;;;;;;;;;5026447;28;20057;-79
2023/08/11 11:38:03;;;;;;;0.90;0.90;;;;;;;;;;5038008;28;20041;-80
2023/08/11 11:40:30;;;;;;;1.83;1.10;;;;;;;;;;5037697;28;20056;-80
2023/08/11 11:42:58;;;;;;;6.20;1.10;;;;;;;;;;5042903;28;20128;-80
2023/08/11 11:45:26;;;;;;;1.20;1.10;;;;;;;;;;5033378;28;20045;-80
2023/08/11 11:47:54;;;;;;;1.10;1.10;;;;;;;;;;5023229;28;20053;-79
2023/08/11 11:50:22;;;;;;;1.10;1.10;;;;;;;;;;5022322;28;20046;-79
2023/08/11 11:52:49;;;;;;;1.10;1.10;;;;;;;;;;5032681;28;20041;-80
2023/08/11 11:55:26;;;;;;;1.00;1.00;;;;;;;;;;5021198;28;20056;-80
2023/08/11 11:58:05;;;;;;;0.90;0.90;;;;;;;;;;5020225;28;20042;-80
2023/08/11 12:00:33;;;;;;;1.17;1.17;;;;;;;;;;5024782;28;20050;-80
2023/08/11 12:03:00;;;;;;;1.20;1.10;;;;;;;;;;5029748;28;20049;-80
2023/08/11 12:05:28;;;;;;;0.82;0.82;;;;;;;;;;5030769;28;20063;-79
2023/08/11 12:07:55;;;;;;;1.15;1.00;;;;;;;;;;5029254;28;20137;-81
2023/08/11 12:10:35;;;;;;;2.67;0.90;;;;;;;;;;5026157;28;20561;-79
2023/08/11 12:13:03;;;;;;;1.05;1.05;;;;;;;;;;5031507;28;20049;-80
2023/08/11 12:15:31;;;;;;;0.98;0.98;;;;;;;;;;5031595;28;20049;-79
2023/08/11 12:17:59;;;;;;;1.30;0.90;;;;;;;;;;5032688;28;20045;-80
2023/08/11 12:20:29;;;;;;;1.10;1.00;;;;;;;;;;5029040;28;20527;-81
2023/08/11 12:22:56;;;;;;;1.20;1.20;;;;;;;;;;5028107;28;20056;-80
2023/08/11 12:25:24;;;;;;;1.10;1.00;;;;;;;;;;5020427;28;20077;-80
2023/08/11 12:27:53;;;;;;;2.08;1.00;;;;;;;;;;5018513;28;20068;-79
2023/08/11 12:30:21;;;;;;;1.17;1.13;;;;;;;;;;5032514;28;20056;-80
2023/08/11 12:32:49;;;;;;;1.02;0.95;;;;;;;;;;5032140;28;20507;-80
2023/08/11 12:35:17;;;;;;;0.88;0.88;;;;;;;;;;5034087;28;20076;-80
2023/08/11 12:37:45;;;;;;;1.75;0.95;;;;;;;;;;5036208;28;20077;-79
2023/08/11 12:40:12;;;;;;;0.82;0.82;;;;;;;;;;5034481;28;20071;-78
2023/08/11 12:42:40;;;;;;;0.90;0.90;;;;;;;;;;5028289;28;20083;-79
2023/08/11 12:45:07;;;;;;;1.10;1.00;;;;;;;;;;5032919;28;20049;-80
2023/08/11 12:47:35;;;;;;;0.90;0.90;;;;;;;;;;5033817;28;20140;-80
2023/08/11 12:50:04;;;;;;;1.00;1.00;;;;;;;;;;5032319;28;20075;-81
2023/08/11 12:52:31;;;;;;;2.72;1.10;;;;;;;;;;5032381;28;20053;-81
2023/08/11 12:54:59;;;;;;;1.63;0.90;;;;;;;;;;5033152;28;20089;-80
2023/08/11 12:57:26;;;;;;;2.25;0.80;;;;;;;;;;5024823;28;20107;-80
2023/08/11 12:59:53;;;;;;;1.20;1.02;;;;;;;;;;5030184;28;20538;-80
2023/08/11 13:02:21;;;;;;;1.00;1.00;;;;;;;;;;5032991;28;20156;-80
2023/08/11 13:04:51;;;;;;;0.85;0.85;;;;;;;;;;5067757;22;20037;-87
2023/08/11 13:07:19;;;;;;;0.90;0.90;;;;;;;;;;5071710;28;20044;-87
2023/08/11 13:09:46;;;;;;;1.90;1.10;;;;;;;;;;5090772;28;20126;-87
2023/08/11 13:12:14;;;;;;;0.80;0.80;;;;;;;;;;5081320;28;20044;-88
2023/08/11 13:14:41;;;;;;;1.65;1.27;;;;;;;;;;5075821;28;20052;-87
2023/08/11 13:17:10;;;;;;;1.20;1.10;;;;;;;;;;5065501;28;20051;-87
2023/08/11 13:19:37;;;;;;;0.80;0.80;;;;;;;;;;5068526;28;20040;-87
2023/08/11 13:22:05;;;;;;;0.90;0.90;;;;;;;;;;5068816;28;20542;-87
2023/08/11 13:24:33;;;;;;;0.90;0.90;;;;;;;;;;5069814;28;20066;-87
2023/08/11 13:27:01;;;;;;;1.17;1.05;;;;;;;;;;5070228;28;20057;-88
2023/08/11 13:29:29;;;;;;;0.80;0.80;;;;;;;;;;5069645;28;20187;-88
2023/08/11 13:31:56;;;;;;;1.25;1.15;;;;;;;;;;5069037;28;20382;-88
2023/08/11 13:34:24;;;;;;;1.67;0.80;;;;;;;;;;5070058;28;20036;-87
2023/08/11 13:36:51;;;;;;;1.10;1.10;;;;;;;;;;5069713;28;20044;-88
2023/08/11 13:39:19;;;;;;;1.38;1.05;;;;;;;;;;5069430;28;20044;-87
2023/08/11 13:41:47;;;;;;;0.98;0.98;;;;;;;;;;5054941;28;20048;-88
2023/08/11 13:44:14;;;;;;;1.00;1.00;;;;;;;;;;5069747;28;20464;-87
2023/08/11 13:46:41;;;;;;;0.80;0.80;;;;;;;;;;5069079;28;20045;-87
2023/08/11 13:49:09;;;;;;;0.80;0.80;;;;;;;;;;5068587;28;20510;-88
2023/08/11 13:51:36;;;;;;;1.38;0.90;;;;;;;;;;5051611;28;20060;-86
2023/08/11 13:54:05;;;;;;;1.95;1.00;;;;;;;;;;5069921;28;20122;-86
2023/08/11 13:56:35;;;;;;;1.00;1.00;;;;;;;;;;5052070;28;20513;-86
2023/08/11 13:59:02;;;;;;;1.42;0.77;;;;;;;;;;5051769;28;20398;-86
2023/08/11 14:01:30;;;;;;;0.90;0.90;;;;;;;;;;5072574;28;20049;-86
2023/08/11 14:03:58;;;;;;;1.40;1.00;;;;;;;;;;5101102;22;20056;-78
2023/08/11 14:06:25;;;;;;;0.80;0.80;;;;;;;;;;5048373;28;20049;-78
2023/08/11 14:08:53;;;;;;;1.00;0.90;;;;;;;;;;5068227;28;20144;-78
2023/08/11 14:11:24;;;;;;;0.90;0.82;;;;;;;;;;5054820;28;20036;-78
2023/08/11 14:13:51;;;;;;;1.05;0.90;;;;;;;;;;5040525;28;20049;-78
2023/08/11 14:16:20;;;;;;;1.00;0.93;;;;;;;;;;5047185;28;20045;-78
2023/08/11 14:18:47;;;;;;;0.77;0.77;;;;;;;;;;5046485;28;20044;-78
2023/08/11 14:21:17;;;;;;;0.70;0.70;;;;;;;;;;5047427;28;20502;-78
2023/08/11 14:23:46;;;;;;;0.80;0.80;;;;;;;;;;5046535;28;20532;-78
2023/08/11 14:26:14;;;;;;;0.80;0.80;;;;;;;;;;5047720;28;20067;-78
2023/08/11 14:28:41;;;;;;;1.10;1.00;;;;;;;;;;5046989;28;20072;-78
2023/08/11 14:31:09;;;;;;;0.70;0.70;;;;;;;;;;5042441;28;20422;-78
2023/08/11 14:33:39;;;;;;;1.25;0.80;;;;;;;;;;5046369;28;20084;-78
2023/08/11 14:36:07;;;;;;;0.88;0.88;;;;;;;;;;5046369;28;20065;-78
2023/08/11 14:38:40;;;;;;;1.15;0.80;;;;;;;;;;5045889;28;20151;-78
2023/08/11 14:41:07;;;;;;;0.90;0.90;;;;;;;;;;5045863;28;20135;-78
2023/08/11 14:43:35;;;;;;;1.00;0.80;;;;;;;;;;5045702;28;20086;-78
2023/08/11 14:46:02;;;;;;;1.20;0.80;;;;;;;;;;5046767;28;20620;-78
2023/08/11 14:48:29;;;;;;;0.82;0.80;;;;;;;;;;5046731;28;20045;-78
2023/08/11 14:50:57;;;;;;;0.90;0.90;;;;;;;;;;5047140;28;20575;-77
2023/08/11 14:53:28;;;;;;;0.88;0.88;;;;;;;;;;5046916;28;20060;-78